Time;durP1;ratioP1;P1;durP2;ratioP2;P2;SDS_P1;SDS_P2;PMS_P1;PMS_P2;Temp;Humidity;BMP_temperature;BMP_pressure;BME280_temperature;BME280_humidity;BME280_pressure;Samples;Min_cycle;Max_cycle;Signal;HPM_P1;HPM_P2
2023/01/23 00:01:26;;;;;;;16.40;10.20;;;0.30;99.90;;;-0.73;100.00;98385.22;5023640;28;20288;-40
2023/01/23 00:03:54;;;;;;;16.90;10.15;;;0.30;99.90;;;-0.79;100.00;98384.25;5027234;28;20483;-40
2023/01/23 00:06:19;;;;;;;16.73;10.32;;;0.30;99.90;;;-0.89;100.00;98378.81;5024815;28;20156;-40
2023/01/23 00:08:46;;;;;;;16.13;9.90;;;0.20;99.90;;;-0.82;100.00;98401.44;5027072;28;20492;-40
2023/01/23 00:11:16;;;;;;;14.95;10.02;;;0.20;99.90;;;-0.84;100.00;98390.16;5026388;28;20558;-40
2023/01/23 00:13:42;;;;;;;16.30;10.45;;;0.20;99.90;;;-0.97;100.00;98378.59;5023793;28;20566;-40
2023/01/23 00:16:12;;;;;;;15.77;9.82;;;0.20;99.90;;;-0.92;100.00;98378.72;5028116;28;20025;-41
2023/01/23 00:18:38;;;;;;;18.17;11.65;;;0.10;99.90;;;-1.01;100.00;98387.16;5028472;28;20063;-40
2023/01/23 00:21:10;;;;;;;16.75;11.27;;;0.10;99.90;;;-1.00;100.00;98388.91;5044173;22;20464;-49
2023/01/23 00:23:37;;;;;;;16.27;10.77;;;0.10;99.90;;;-1.01;100.00;98384.56;5022578;28;20409;-50
2023/01/23 00:26:09;;;;;;;16.90;10.30;;;0.10;99.90;;;-0.93;100.00;98385.63;5029278;28;20081;-51
2023/01/23 00:28:36;;;;;;;15.32;9.85;;;0.10;99.90;;;-0.92;100.00;98382.19;5014973;28;20099;-48
2023/01/23 00:31:12;;;;;;;18.02;10.43;;;0.10;99.90;;;-0.96;100.00;98383.81;5032654;28;20067;-49
2023/01/23 00:33:42;;;;;;;16.33;9.77;;;0.10;99.90;;;-0.88;100.00;98393.50;5026626;28;20036;-51
2023/01/23 00:36:08;;;;;;;16.38;10.18;;;0.20;99.90;;;-0.85;100.00;98389.25;5022175;28;20028;-51
2023/01/23 00:38:34;;;;;;;14.88;9.57;;;0.20;99.90;;;-0.82;100.00;98391.94;5029120;28;20181;-50
2023/01/23 00:41:01;;;;;;;16.67;11.00;;;0.20;99.90;;;-0.79;100.00;98388.53;5025393;28;20052;-49
2023/01/23 00:43:27;;;;;;;17.30;11.18;;;0.30;99.90;;;-0.98;100.00;98362.19;5024110;28;20124;-52
2023/01/23 00:45:53;;;;;;;17.30;10.07;;;0.20;99.90;;;-0.90;100.00;98380.50;5020359;28;20228;-52
2023/01/23 00:48:19;;;;;;;15.77;10.13;;;0.20;99.90;;;-0.87;100.00;98378.00;5024086;28;20029;-50
2023/01/23 00:50:45;;;;;;;16.25;10.65;;;0.20;99.90;;;-0.86;100.00;98389.22;5026278;28;20057;-50
2023/01/23 00:53:12;;;;;;;14.80;10.43;;;0.20;99.90;;;-0.85;100.00;98383.22;5026285;28;20029;-51
2023/01/23 00:55:38;;;;;;;17.33;10.48;;;0.20;99.90;;;-0.87;100.00;98384.91;5026382;28;20225;-48
2023/01/23 00:58:04;;;;;;;14.65;9.75;;;0.20;99.90;;;-0.83;100.00;98385.00;5018530;28;20049;-51
2023/01/23 01:00:30;;;;;;;16.52;8.80;;;0.20;99.90;;;-0.83;100.00;98384.13;5012391;28;20041;-54
2023/01/23 01:02:56;;;;;;;15.55;10.02;;;0.20;99.90;;;-0.84;100.00;98379.81;5011177;28;20033;-52
2023/01/23 01:05:21;;;;;;;15.13;9.27;;;0.20;99.90;;;-0.91;100.00;98383.94;5018299;28;20037;-52
2023/01/23 01:07:47;;;;;;;12.00;8.85;;;0.20;99.90;;;-0.96;100.00;98376.06;5020584;28;20576;-50
2023/01/23 01:10:14;;;;;;;14.75;8.68;;;0.20;99.90;;;-1.08;100.00;98380.06;5022684;28;20033;-49
2023/01/23 01:12:40;;;;;;;15.23;9.35;;;0.10;99.90;;;-1.05;100.00;98393.97;5027827;28;20328;-51
2023/01/23 01:15:07;;;;;;;14.35;9.27;;;0.00;99.90;;;-1.08;100.00;98393.88;5025653;28;20480;-51
2023/01/23 01:17:33;;;;;;;14.57;9.00;;;0.00;99.90;;;-1.04;100.00;98403.50;5030108;28;20033;-48
2023/01/23 01:19:59;;;;;;;15.13;9.85;;;0.00;99.90;;;-1.01;100.00;98405.28;5025257;28;20037;-49
2023/01/23 01:22:24;;;;;;;13.43;9.00;;;0.00;99.90;;;-0.99;100.00;98412.25;5027764;28;22540;-49
2023/01/23 01:24:50;;;;;;;14.85;9.27;;;0.10;99.90;;;-1.00;100.00;98412.22;5021623;28;20068;-51
2023/01/23 01:27:16;;;;;;;14.77;9.20;;;0.10;99.90;;;-0.96;100.00;98414.91;5021214;28;20048;-51
2023/01/23 01:29:42;;;;;;;13.38;8.95;;;0.10;99.90;;;-0.92;100.00;98421.03;5021455;28;20024;-51
2023/01/23 01:32:08;;;;;;;14.20;9.27;;;0.10;99.90;;;-0.91;100.00;98416.75;5025194;28;20103;-52
2023/01/23 01:34:33;;;;;;;15.13;9.20;;;0.20;99.90;;;-0.91;100.00;98422.78;5024285;28;20080;-51
2023/01/23 01:37:00;;;;;;;14.18;9.20;;;0.20;99.90;;;-0.90;100.00;98421.06;5021964;28;20677;-51
2023/01/23 01:39:25;;;;;;;15.32;9.45;;;0.20;99.90;;;-0.89;100.00;98415.94;5024474;28;20040;-50
2023/01/23 01:41:51;;;;;;;14.90;9.48;;;0.20;99.90;;;-0.81;100.00;98418.72;5023501;28;20033;-49
2023/01/23 01:44:22;;;;;;;14.30;9.27;;;0.20;99.90;;;-0.86;100.00;98420.31;5025446;28;20107;-50
2023/01/23 01:46:48;;;;;;;15.48;9.05;;;0.20;99.90;;;-0.73;100.00;98421.50;5022615;28;20029;-50
2023/01/23 01:49:25;;;;;;;13.55;8.82;;;0.20;99.90;;;-0.76;100.00;98424.88;5022894;28;20082;-51
2023/01/23 01:52:11;;;;;;;14.85;9.63;;;0.30;99.90;;;-0.73;100.00;98418.91;5003929;28;20037;-51
2023/01/23 01:54:53;;;;;;;14.75;8.85;;;0.30;99.90;;;-0.77;100.00;98429.19;5024794;28;20499;-49
2023/01/23 01:57:32;;;;;;;;;;;0.30;99.90;;;-0.77;100.00;98429.19;5011127;28;20394;-52
2023/01/23 02:00:16;;;;;;;12.73;8.07;;;0.30;99.90;;;-0.75;100.00;98424.06;5004871;28;19970;-51
2023/01/23 02:03:06;;;;;;;16.15;9.13;;;0.30;99.90;;;-0.79;100.00;98423.09;5010703;28;20035;-48
2023/01/23 02:05:43;;;;;;;13.80;8.82;;;0.30;99.90;;;-0.77;100.00;98425.75;5023443;28;20033;-48
2023/01/23 02:08:27;;;;;;;11.82;8.00;;;0.30;99.90;;;-0.78;100.00;98430.03;5025033;28;20036;-49
2023/01/23 02:10:53;;;;;;;13.75;8.35;;;0.30;99.90;;;-0.79;100.00;98432.56;5008470;28;20033;-50
2023/01/23 02:13:27;;;;;;;15.68;9.70;;;0.30;99.90;;;-0.82;100.00;98419.56;5022203;28;20025;-50
2023/01/23 02:15:53;;;;;;;14.00;9.15;;;0.30;99.90;;;-0.77;100.00;98424.00;5023807;28;20047;-49
2023/01/23 02:18:19;;;;;;;14.98;9.63;;;0.30;99.90;;;-0.77;100.00;98433.50;5028869;28;20024;-49
2023/01/23 02:20:46;;;;;;;14.45;9.23;;;0.30;99.90;;;-0.77;100.00;98428.31;5007385;28;20128;-50
2023/01/23 02:23:58;;;;;;;14.55;9.50;;;0.30;99.90;;;-0.73;100.00;98429.28;5007697;28;20040;-49
2023/01/23 02:26:31;;;;;;;14.50;8.65;;;0.30;99.90;;;-0.71;100.00;98435.38;5023867;28;21153;-52
2023/01/23 02:28:58;;;;;;;14.75;9.18;;;0.30;99.90;;;-0.75;100.00;98426.66;5002796;28;20106;-52
2023/01/23 02:31:25;;;;;;;14.63;9.48;;;0.30;99.90;;;-0.67;100.00;98432.00;5025328;28;20516;-52
2023/01/23 02:33:56;;;;;;;13.90;9.27;;;0.40;99.90;;;-0.69;100.00;98425.91;5018578;28;20037;-48
2023/01/23 02:36:30;;;;;;;14.15;9.15;;;0.40;99.90;;;-0.65;100.00;98425.13;5027128;28;20070;-50
2023/01/23 02:39:13;;;;;;;13.95;8.48;;;0.40;99.90;;;-0.64;100.00;98417.41;5020654;28;20056;-49
2023/01/23 02:41:43;;;;;;;13.30;8.82;;;0.40;99.90;;;-0.66;100.00;98418.22;5020649;28;20075;-53
2023/01/23 02:44:18;;;;;;;15.43;9.50;;;0.40;99.90;;;-0.72;100.00;98408.56;5022075;28;20069;-52
2023/01/23 02:46:44;;;;;;;17.40;9.98;;;0.40;99.90;;;-0.66;100.00;98424.28;5021999;28;20210;-48
2023/01/23 02:49:10;;;;;;;14.95;9.20;;;0.40;99.90;;;-0.67;100.00;98419.03;5018065;28;21557;-48
2023/01/23 02:51:36;;;;;;;15.32;9.55;;;0.40;99.90;;;-0.68;100.00;98419.88;5028173;28;20155;-51
2023/01/23 02:54:02;;;;;;;16.27;9.48;;;0.40;99.90;;;-0.68;100.00;98422.47;5015779;28;20179;-49
2023/01/23 02:56:28;;;;;;;15.55;9.75;;;0.30;99.90;;;-0.68;100.00;98420.78;5022048;28;20029;-53
2023/01/23 03:01:38;;;;;;;14.70;9.25;;;0.40;99.90;;;-0.63;100.00;98423.44;5024323;28;20087;-50
2023/01/23 03:04:05;;;;;;;14.32;9.60;;;0.30;99.90;;;-0.60;100.00;98431.31;5025358;28;20025;-51
2023/01/23 03:06:37;;;;;;;14.10;9.43;;;0.40;99.90;;;-0.60;100.00;98433.91;5026126;28;20045;-50
2023/01/23 03:09:10;;;;;;;16.70;10.05;;;0.40;99.90;;;-0.61;100.00;98433.03;5024676;28;20044;-49
2023/01/23 03:11:38;;;;;;;15.95;9.57;;;0.40;99.90;;;-0.62;100.00;98436.44;5023856;28;20029;-49
2023/01/23 03:14:07;;;;;;;15.30;10.15;;;0.40;99.90;;;-0.69;100.00;98406.06;5010190;28;20033;-49
2023/01/23 03:16:33;;;;;;;15.00;9.27;;;0.40;99.90;;;-0.63;100.00;98432.13;5021900;28;20053;-50
2023/01/23 03:19:04;;;;;;;17.00;10.50;;;0.40;99.90;;;-0.63;100.00;98428.63;5021833;28;20036;-50
2023/01/23 03:21:32;;;;;;;13.13;8.57;;;0.40;99.90;;;-0.63;100.00;98431.22;5023584;28;20278;-52
2023/01/23 03:23:57;;;;;;;16.10;10.05;;;0.40;99.90;;;-0.60;100.00;98427.00;5020933;28;20028;-51
2023/01/23 03:26:23;;;;;;;14.60;9.68;;;0.40;99.90;;;-0.62;100.00;98433.84;5021219;28;20569;-50
2023/01/23 03:31:38;;;;;;;14.80;9.95;;;0.40;99.90;;;-0.56;100.00;98427.06;4980228;28;20071;-49
2023/01/23 03:34:04;;;;;;;16.17;9.98;;;0.40;99.90;;;-0.62;100.00;98425.22;5007925;28;20528;-49
2023/01/23 03:36:29;;;;;;;16.75;10.38;;;0.40;99.90;;;-0.59;100.00;98417.53;5024302;28;20484;-48
2023/01/23 03:41:40;;;;;;;19.13;11.27;;;0.40;99.90;;;-0.66;100.00;98421.69;5018927;28;20044;-50
2023/01/23 03:44:08;;;;;;;17.13;10.70;;;0.40;99.90;;;-0.65;100.00;98415.63;5015004;28;20686;-49
2023/01/23 03:46:34;;;;;;;18.98;11.18;;;0.40;99.90;;;-0.67;100.00;98413.88;5017290;28;20045;-50
2023/01/23 03:49:00;;;;;;;16.23;10.35;;;0.40;99.90;;;-0.69;100.00;98416.41;5021595;28;20041;-50
2023/01/23 03:51:25;;;;;;;18.08;10.40;;;0.40;99.90;;;-0.67;100.00;98416.47;5023547;28;20489;-49
2023/01/23 03:53:51;;;;;;;15.55;10.57;;;0.40;99.90;;;-0.69;100.00;98419.00;5019636;28;20525;-51
2023/01/23 03:56:17;;;;;;;17.25;10.52;;;0.30;99.90;;;-0.66;100.00;98421.69;5023094;28;20120;-50
2023/01/23 03:58:42;;;;;;;19.45;11.32;;;0.30;99.90;;;-0.72;100.00;98425.81;5023132;28;20029;-50
2023/01/23 04:01:08;;;;;;;16.63;10.18;;;0.30;99.90;;;-0.72;100.00;98423.25;5013877;28;20389;-48
2023/01/23 04:03:35;;;;;;;15.82;10.45;;;0.30;99.90;;;-0.70;100.00;98425.03;5021810;28;20319;-49
2023/01/23 04:06:01;;;;;;;17.55;10.38;;;0.30;99.90;;;-0.72;100.00;98426.69;5022246;28;20349;-48
2023/01/23 04:08:28;;;;;;;15.57;9.93;;;0.30;99.90;;;-0.72;100.00;98426.69;5025721;28;20053;-51
2023/01/23 04:11:09;;;;;;;17.33;11.18;;;0.30;99.90;;;-0.77;100.00;98423.16;5020844;28;20492;-52
2023/01/23 04:13:35;;;;;;;18.20;11.07;;;0.30;99.90;;;-0.73;100.00;98437.91;5022658;28;20596;-49
2023/01/23 04:16:01;;;;;;;17.20;10.68;;;0.30;99.90;;;-0.71;100.00;98435.38;5014139;28;20075;-50
2023/01/23 04:18:28;;;;;;;14.93;10.15;;;0.30;99.90;;;-0.68;100.00;98441.50;5021738;28;20589;-50
2023/01/23 04:20:54;;;;;;;17.50;11.05;;;0.40;99.90;;;-0.65;100.00;98453.63;5020557;28;20179;-52
2023/01/23 04:23:20;;;;;;;20.58;11.80;;;0.40;99.90;;;-0.63;100.00;98442.50;5021464;28;20561;-50
2023/01/23 04:25:45;;;;;;;20.33;10.90;;;0.40;99.90;;;-0.62;100.00;98457.19;5021649;28;20036;-52
2023/01/23 04:28:11;;;;;;;15.27;9.93;;;0.40;99.90;;;-0.58;100.00;98455.53;5020517;28;20127;-50
2023/01/23 04:30:37;;;;;;;18.35;11.30;;;0.40;99.90;;;-0.63;100.00;98460.63;5017905;28;20036;-49
2023/01/23 04:33:03;;;;;;;19.38;11.57;;;0.40;99.90;;;-0.62;100.00;98464.09;5019917;28;20029;-51
2023/01/23 04:35:29;;;;;;;17.90;11.68;;;0.40;99.90;;;-0.63;100.00;98459.72;5021948;28;20033;-51
2023/01/23 04:37:54;;;;;;;19.65;11.57;;;0.40;99.90;;;-0.67;100.00;98465.69;5019391;28;22130;-49
2023/01/23 04:40:20;;;;;;;18.15;10.80;;;0.40;99.90;;;-0.71;100.00;98459.53;5017336;28;20356;-48
2023/01/23 04:42:46;;;;;;;20.63;11.50;;;0.40;99.90;;;-0.63;100.00;98458.03;5013925;28;20029;-51
2023/01/23 04:45:12;;;;;;;16.80;10.73;;;0.40;99.90;;;-0.74;100.00;98448.22;5014541;28;20094;-50
2023/01/23 04:47:38;;;;;;;17.55;11.38;;;0.40;99.90;;;-0.70;100.00;98463.00;5022139;28;20140;-51
2023/01/23 04:50:04;;;;;;;17.83;11.32;;;0.40;99.90;;;-0.70;100.00;98463.00;5022129;28;20052;-51
2023/01/23 04:52:30;;;;;;;18.02;10.70;;;0.40;99.90;;;-0.71;100.00;98456.97;5014844;28;20450;-51
2023/01/23 04:54:56;;;;;;;16.60;10.98;;;0.30;99.90;;;-0.69;100.00;98467.38;5011841;28;20051;-51
2023/01/23 04:57:22;;;;;;;18.70;10.88;;;0.30;99.90;;;-0.69;100.00;98472.53;5018167;28;20091;-51
2023/01/23 04:59:48;;;;;;;18.00;10.65;;;0.30;99.90;;;-0.69;100.00;98472.53;5012430;28;20037;-49
2023/01/23 05:02:13;;;;;;;18.13;10.80;;;0.30;99.90;;;-0.66;100.00;98464.84;5018801;28;20040;-49
2023/01/23 05:04:39;;;;;;;20.20;12.00;;;0.40;99.90;;;-0.69;100.00;98468.22;5012642;28;20143;-49
2023/01/23 05:07:05;;;;;;;19.60;11.60;;;0.40;99.90;;;-0.70;100.00;98470.78;5014291;28;20106;-49
2023/01/23 05:09:31;;;;;;;17.25;10.82;;;0.40;99.90;;;-0.71;100.00;98476.81;5016219;28;20036;-50
2023/01/23 05:11:57;;;;;;;18.70;11.23;;;0.30;99.90;;;-0.72;100.00;98467.28;5008876;28;20037;-49
2023/01/23 05:14:24;;;;;;;20.83;11.88;;;0.30;99.90;;;-0.76;100.00;98468.91;5010432;28;20036;-50
2023/01/23 05:16:50;;;;;;;19.00;12.05;;;0.30;99.90;;;-0.74;100.00;98469.81;5002553;28;20789;-49
2023/01/23 05:19:15;;;;;;;18.17;11.68;;;0.30;99.90;;;-0.75;100.00;98478.44;5009777;28;20336;-48
2023/01/23 05:21:41;;;;;;;20.10;12.80;;;0.30;99.90;;;-0.76;100.00;98476.69;5019307;28;20414;-52
2023/01/23 05:24:09;;;;;;;19.10;11.88;;;0.30;99.90;;;-0.74;100.00;98487.09;5014850;28;20469;-49
2023/01/23 05:26:35;;;;;;;19.80;11.77;;;0.30;99.90;;;-0.74;100.00;98477.59;5012631;28;20465;-47
2023/01/23 05:29:01;;;;;;;21.30;11.88;;;0.30;99.90;;;-0.74;100.00;98475.00;5015995;28;20353;-51
2023/01/23 05:31:27;;;;;;;20.77;11.98;;;0.30;99.90;;;-0.76;100.00;98476.69;5013255;28;20060;-50
2023/01/23 05:33:52;;;;;;;19.92;12.00;;;0.30;99.90;;;-0.78;100.00;98473.19;5013582;28;22102;-51
2023/01/23 05:36:18;;;;;;;20.52;12.55;;;0.30;99.90;;;-0.75;100.00;98475.88;5023474;28;20481;-48
2023/01/23 05:38:44;;;;;;;17.63;11.20;;;0.30;99.90;;;-0.72;100.00;98477.63;5014655;28;20037;-48
2023/01/23 05:41:09;;;;;;;22.35;13.00;;;0.30;99.90;;;-0.79;100.00;98476.59;5018731;28;20835;-48
2023/01/23 05:43:35;;;;;;;20.60;12.65;;;0.30;99.90;;;-0.81;100.00;98470.50;5017215;28;20032;-52
2023/01/23 05:46:01;;;;;;;20.92;12.13;;;0.20;99.90;;;-0.77;100.00;98477.53;5012891;28;20056;-52
2023/01/23 05:48:27;;;;;;;19.60;12.00;;;0.30;99.90;;;-0.81;100.00;98468.81;5011434;28;20206;-47
2023/01/23 05:50:53;;;;;;;19.02;11.32;;;0.30;99.90;;;-0.78;100.00;98480.97;5018946;28;20060;-48
2023/01/23 05:53:19;;;;;;;21.88;12.45;;;0.30;99.90;;;-0.78;100.00;98475.78;5009849;28;20037;-50
2023/01/23 05:55:44;;;;;;;21.42;11.88;;;0.30;99.90;;;-0.77;100.00;98474.94;5008446;28;20539;-47
2023/01/23 05:58:10;;;;;;;23.05;12.75;;;0.30;99.90;;;-0.82;100.00;98473.97;5013581;28;20041;-49
2023/01/23 06:00:36;;;;;;;17.55;11.05;;;0.20;99.90;;;-0.77;100.00;98480.13;5014479;28;20036;-50
2023/01/23 06:03:01;;;;;;;17.67;10.77;;;0.20;99.90;;;-0.76;100.00;98481.88;5015492;28;20059;-48
2023/01/23 06:05:27;;;;;;;19.67;11.27;;;0.30;99.90;;;-0.74;100.00;98489.69;5016173;28;20489;-52
2023/01/23 06:07:53;;;;;;;20.05;11.98;;;0.30;99.90;;;-0.73;100.00;98488.84;5014950;28;20073;-46
2023/01/23 06:10:19;;;;;;;21.13;11.88;;;0.30;99.90;;;-0.69;100.00;98491.53;5022810;28;20116;-45
2023/01/23 06:12:44;;;;;;;20.75;12.00;;;0.30;99.90;;;-0.69;100.00;98488.94;5019026;28;20029;-44
2023/01/23 06:15:10;;;;;;;20.77;12.10;;;0.30;99.90;;;-0.66;100.00;98496.81;5011916;28;20155;-48
2023/01/23 06:17:36;;;;;;;19.80;11.50;;;0.30;99.90;;;-0.71;100.00;98495.81;5024290;28;20041;-48
2023/01/23 06:20:03;;;;;;;20.40;12.02;;;0.30;99.90;;;-0.69;100.00;98501.03;5021424;28;20170;-50
2023/01/23 06:22:29;;;;;;;19.45;11.27;;;0.30;99.90;;;-0.70;100.00;98501.88;5051551;22;20044;-39
2023/01/23 06:24:54;;;;;;;19.50;11.45;;;0.30;99.90;;;-0.72;100.00;98494.06;5044555;28;20261;-39
2023/01/23 06:27:20;;;;;;;20.67;12.10;;;0.30;99.90;;;-0.73;100.00;98502.69;5031798;28;21964;-39
2023/01/23 06:29:46;;;;;;;19.58;11.45;;;0.30;99.90;;;-0.74;100.00;98506.09;5036455;28;21280;-39
2023/01/23 06:32:12;;;;;;;20.85;12.25;;;0.30;99.90;;;-0.77;100.00;98498.25;5033845;28;20051;-39
2023/01/23 06:34:38;;;;;;;20.30;10.38;;;0.30;99.90;;;-0.79;100.00;98505.09;5027375;28;20099;-39
2023/01/23 06:37:03;;;;;;;21.45;11.52;;;0.30;99.90;;;-0.77;100.00;98516.41;5025157;28;20033;-39
2023/01/23 06:39:29;;;;;;;21.38;11.52;;;0.30;99.90;;;-0.79;100.00;98523.22;5019153;28;20146;-39
2023/01/23 06:41:56;;;;;;;21.10;11.18;;;0.20;99.90;;;-0.92;100.00;98515.97;5015676;28;21031;-39
2023/01/23 06:44:22;;;;;;;20.15;11.63;;;0.20;99.90;;;-0.82;100.00;98533.53;5003810;28;20170;-39
2023/01/23 06:46:48;;;;;;;20.80;12.15;;;0.20;99.90;;;-0.80;100.00;98531.84;5024426;28;20506;-39
2023/01/23 06:49:14;;;;;;;20.00;11.57;;;0.20;99.90;;;-1.02;100.00;98500.22;5022321;28;20072;-39
2023/01/23 06:51:39;;;;;;;20.70;11.27;;;0.30;99.90;;;-0.82;100.00;98538.72;5025971;28;20056;-39
2023/01/23 06:54:05;;;;;;;19.83;11.50;;;0.30;99.90;;;-0.84;100.00;98536.06;5020075;28;20044;-39
2023/01/23 06:56:31;;;;;;;18.92;11.70;;;0.30;99.90;;;-0.95;100.00;98527.16;5021817;28;20032;-39
2023/01/23 06:58:57;;;;;;;20.85;12.05;;;0.20;99.90;;;-0.81;100.00;98550.81;5015184;28;20033;-39
2023/01/23 07:01:23;;;;;;;20.10;11.88;;;0.30;99.90;;;-0.83;100.00;98545.59;5020783;28;20037;-39
2023/01/23 07:03:49;;;;;;;20.52;11.98;;;0.30;99.90;;;-0.75;100.00;98553.56;5008397;28;20167;-39
2023/01/23 07:06:15;;;;;;;18.45;11.65;;;0.30;99.90;;;-0.73;100.00;98564.00;5018058;28;20040;-39
2023/01/23 07:08:41;;;;;;;19.92;10.98;;;0.30;99.90;;;-0.79;100.00;98549.13;5016424;28;20033;-39
2023/01/23 07:11:08;;;;;;;21.80;11.77;;;0.30;99.90;;;-0.66;100.00;98565.91;5016393;28;20029;-39
2023/01/23 07:13:34;;;;;;;22.58;12.80;;;0.30;99.90;;;-0.87;100.00;98535.97;5007384;28;20087;-39
2023/01/23 07:16:00;;;;;;;21.10;12.32;;;0.40;99.90;;;-0.70;100.00;98562.34;5014792;28;20050;-39
2023/01/23 07:18:27;;;;;;;20.33;11.75;;;0.40;99.90;;;-0.70;100.00;98567.53;5020554;28;20044;-39
2023/01/23 07:20:54;;;;;;;20.33;11.20;;;0.40;99.90;;;-0.65;100.00;98567.63;5019909;28;20037;-39
2023/01/23 07:23:20;;;;;;;21.23;12.85;;;0.40;99.90;;;-0.62;100.00;98570.31;4999292;28;20052;-39
2023/01/23 07:25:46;;;;;;;22.02;11.65;;;0.40;99.90;;;-0.50;100.00;98580.09;5018160;28;20086;-39
2023/01/23 07:28:11;;;;;;;19.98;12.00;;;0.50;99.90;;;-0.61;100.00;98575.53;5023136;28;20044;-39
2023/01/23 07:30:37;;;;;;;18.60;11.60;;;0.50;99.90;;;-0.58;100.00;98575.59;5011274;28;20029;-40
2023/01/23 07:33:03;;;;;;;22.52;13.15;;;0.50;99.90;;;-0.54;100.00;98578.28;5025237;28;20868;-39
2023/01/23 07:35:29;;;;;;;21.70;12.55;;;0.50;99.90;;;-0.60;100.00;98572.09;5027780;28;20270;-39
2023/01/23 07:37:55;;;;;;;22.85;12.63;;;0.50;99.90;;;-0.61;100.00;98583.31;5007885;28;20087;-39
2023/01/23 07:40:57;;;;;;;22.23;12.68;;;0.50;99.90;;;-0.60;100.00;98579.88;5023573;28;20289;-39
2023/01/23 07:43:23;;;;;;;22.20;12.45;;;0.50;99.90;;;-0.58;100.00;98580.78;5001312;28;20127;-39
2023/01/23 07:45:49;;;;;;;22.77;12.77;;;0.50;99.90;;;-0.56;100.00;98573.06;5016916;28;20032;-39
2023/01/23 07:48:15;;;;;;;24.90;13.55;;;0.50;99.90;;;-0.53;100.00;98587.81;5018606;28;20033;-39
2023/01/23 07:50:40;;;;;;;21.67;12.40;;;0.50;99.90;;;-0.66;100.00;98551.22;5022458;28;20032;-39
2023/01/23 07:53:06;;;;;;;22.45;12.88;;;0.60;99.90;;;-0.44;100.00;98575.09;5018897;28;20029;-39
2023/01/23 07:55:32;;;;;;;23.30;12.50;;;0.60;99.90;;;-0.40;100.00;98579.50;5018186;28;20794;-39
2023/01/23 07:57:58;;;;;;;20.25;11.60;;;0.70;99.90;;;-0.47;100.00;98568.09;5018364;28;20089;-39
2023/01/23 08:00:24;;;;;;;23.00;12.52;;;0.60;99.90;;;-0.34;100.00;98582.28;5008731;28;20066;-39
2023/01/23 08:02:50;;;;;;;24.85;13.52;;;0.70;99.90;;;-0.35;100.00;98577.91;5018754;28;20512;-39
2023/01/23 08:05:15;;;;;;;22.23;12.45;;;0.70;99.90;;;-0.37;100.00;98569.22;5014303;28;20408;-39
2023/01/23 08:07:41;;;;;;;24.40;12.77;;;0.70;99.90;;;-0.27;100.00;98575.50;5016263;28;20045;-39
2023/01/23 08:10:08;;;;;;;25.75;13.27;;;0.80;99.90;;;-0.27;100.00;98572.91;5013667;28;20030;-39
2023/01/23 08:12:34;;;;;;;22.75;12.77;;;0.80;99.90;;;-0.24;100.00;98589.44;5016434;28;20033;-39
2023/01/23 08:15:00;;;;;;;24.40;13.13;;;0.80;99.90;;;-0.27;100.00;98558.25;5021675;28;20038;-39
2023/01/23 08:17:25;;;;;;;23.40;13.13;;;0.80;99.90;;;-0.20;100.00;98573.13;5028021;28;20024;-39
2023/01/23 08:19:51;;;;;;;22.23;12.82;;;0.80;99.90;;;-0.16;100.00;98571.50;5019458;28;20108;-39
2023/01/23 08:22:17;;;;;;;24.05;12.73;;;0.90;99.90;;;-0.14;100.00;98572.41;5023261;28;20032;-39
2023/01/23 08:24:43;;;;;;;24.80;13.82;;;0.90;99.90;;;-0.16;100.00;98562.81;5002559;28;20032;-39
2023/01/23 08:27:08;;;;;;;26.00;13.32;;;0.90;99.90;;;0.07;100.00;98573.75;5028802;28;20532;-39
2023/01/23 08:29:34;;;;;;;26.38;14.35;;;1.00;99.90;;;0.02;100.00;98565.88;5020260;28;20060;-39
2023/01/23 08:32:00;;;;;;;28.20;14.07;;;1.10;99.90;;;0.02;100.00;98573.66;5025632;28;20040;-39
2023/01/23 08:34:25;;;;;;;25.02;13.50;;;1.10;99.90;;;0.04;100.00;98577.16;5023686;28;20472;-39
2023/01/23 08:36:51;;;;;;;28.25;12.77;;;1.10;99.90;;;0.07;100.00;98565.97;5031998;28;20021;-39
2023/01/23 08:39:18;;;;;;;21.60;13.32;;;1.10;99.90;;;0.11;100.00;98560.88;5020851;28;20378;-39
2023/01/23 08:41:45;;;;;;;26.77;13.18;;;1.20;99.90;;;0.13;100.00;98555.75;5029862;28;20043;-39
2023/01/23 08:44:12;;;;;;;22.63;13.30;;;1.20;99.90;;;0.04;100.00;98571.97;4994455;28;20049;-39
2023/01/23 08:46:38;;;;;;;24.15;13.15;;;1.20;99.90;;;-0.03;100.00;98570.94;5003130;28;20060;-39
2023/01/23 08:49:04;;;;;;;21.92;12.63;;;1.10;99.90;;;-0.07;100.00;98566.53;5022842;28;20503;-39
2023/01/23 08:51:30;;;;;;;23.92;13.23;;;1.10;99.90;;;-0.06;100.00;98576.03;5021957;28;20557;-39
2023/01/23 08:53:55;;;;;;;22.25;12.70;;;1.00;99.90;;;-0.11;100.00;98571.59;5017740;28;20133;-39
2023/01/23 08:56:23;;;;;;;20.35;12.13;;;0.90;99.90;;;-0.12;100.00;98564.66;5026101;28;20516;-39
2023/01/23 08:58:50;;;;;;;23.67;12.02;;;0.90;99.90;;;-0.18;100.00;98570.53;5027379;28;20061;-40
2023/01/23 09:01:20;;;;;;;17.92;11.07;;;0.90;99.90;;;-0.07;100.00;98568.22;5022148;28;20036;-39
2023/01/23 09:03:46;;;;;;;19.45;11.13;;;0.90;99.90;;;-0.06;100.00;98575.16;5020144;28;20033;-39
2023/01/23 09:06:14;;;;;;;18.85;10.77;;;1.00;99.90;;;0.08;100.00;98568.59;5028098;28;20388;-40
2023/01/23 09:08:40;;;;;;;18.10;11.30;;;1.00;99.90;;;0.00;100.00;98580.53;5024341;28;20044;-39
2023/01/23 09:11:09;;;;;;;22.27;12.43;;;1.00;99.90;;;0.01;100.00;98577.06;5025684;28;20073;-39
2023/01/23 09:13:35;;;;;;;20.88;11.68;;;1.10;99.90;;;0.03;100.00;98570.19;5024797;28;20049;-40
2023/01/23 09:16:01;;;;;;;18.73;10.88;;;1.10;99.90;;;0.16;100.00;98581.72;5028227;28;20124;-39
2023/01/23 09:18:27;;;;;;;21.55;11.35;;;1.20;99.90;;;0.14;100.00;98579.13;5024391;28;20033;-40
2023/01/23 09:20:53;;;;;;;19.05;10.85;;;1.20;99.90;;;0.31;100.00;98576.91;5007885;28;20059;-39
2023/01/23 09:23:20;;;;;;;17.25;10.60;;;1.30;99.90;;;0.37;100.00;98574.44;5028487;28;20079;-39
2023/01/23 09:25:46;;;;;;;16.73;9.88;;;1.50;99.90;;;0.47;100.00;98582.44;5026060;28;20484;-39
2023/01/23 09:28:12;;;;;;;18.20;9.60;;;1.60;99.90;;;0.49;100.00;98576.44;5025936;28;20182;-40
2023/01/23 09:30:38;;;;;;;16.48;9.60;;;1.60;99.90;;;0.54;100.00;98592.13;5002730;28;20029;-39
2023/01/23 09:33:04;;;;;;;19.52;10.05;;;1.70;99.90;;;0.55;100.00;98581.75;5024115;28;20263;-39
2023/01/23 09:35:30;;;;;;;14.93;9.10;;;1.70;99.90;;;0.49;100.00;98581.63;5006467;28;20234;-39
2023/01/23 09:38:03;;;;;;;15.43;8.75;;;1.70;99.90;;;0.65;100.00;98582.84;5022081;28;20071;-39
2023/01/23 09:40:34;;;;;;;15.30;9.32;;;1.70;99.90;;;0.36;100.00;98561.44;5017161;28;20040;-40
2023/01/23 09:43:22;;;;;;;14.05;8.25;;;1.70;99.90;;;0.45;100.00;98586.72;5023906;28;20080;-40
2023/01/23 09:46:12;;;;;;;13.85;7.70;;;1.60;99.90;;;0.39;100.00;98600.44;5018933;28;20032;-39
2023/01/23 09:48:44;;;;;;;16.52;8.68;;;1.50;99.90;;;0.35;100.00;98593.41;5020244;28;20969;-39
2023/01/23 09:51:37;;;;;;;15.13;8.95;;;1.50;99.90;;;0.47;100.00;98591.09;5009482;28;20032;-39
2023/01/23 09:54:48;;;;;;;17.15;8.63;;;1.60;99.90;;;0.45;100.00;98597.09;5019233;28;21269;-40
2023/01/23 09:57:27;;;;;;;16.95;8.38;;;1.50;99.90;;;0.37;100.00;98605.56;5015321;28;20029;-40
2023/01/23 10:00:13;;;;;;;14.02;8.80;;;1.50;99.90;;;0.46;100.00;98598.84;5010390;28;20823;-40
2023/01/23 10:02:42;;;;;;;15.00;8.43;;;1.60;99.90;;;0.53;100.00;98587.75;5001126;28;20067;-39
2023/01/23 10:05:16;;;;;;;17.08;9.32;;;1.60;99.90;;;0.61;100.00;98603.50;5005419;28;20029;-40
2023/01/23 10:08:23;;;;;;;14.40;8.73;;;1.70;99.90;;;0.60;100.00;98600.03;5023304;28;20120;-39
2023/01/23 10:10:58;;;;;;;13.95;8.55;;;1.70;99.90;;;0.75;100.00;98599.47;4994743;28;20445;-39
2023/01/23 10:14:06;;;;;;;15.80;8.90;;;1.80;99.90;;;0.90;100.00;98584.22;5011176;28;20298;-40
2023/01/23 10:16:51;;;;;;;19.40;9.27;;;2.00;99.90;;;1.31;100.00;98591.97;5022579;28;20024;-39
2023/01/23 10:19:31;;;;;;;15.25;9.15;;;2.30;99.90;;;1.50;100.00;98600.09;5004266;28;20037;-40
2023/01/23 10:22:53;;;;;;;12.30;7.90;;;2.60;99.90;;;1.75;100.00;98608.34;5025801;28;20037;-38
2023/01/23 10:25:25;;;;;;;16.73;9.13;;;2.70;99.90;;;1.42;100.00;98596.47;4954522;28;20095;-39